sensor_id;sensor_type;location;lat;lon;timestamp;P1;durP1;ratioP1;P2;durP2;ratioP2
78774;SDS011;68119;43.398;3.676;2023-05-10T00:00:15;5.90;;;2.08;;
78774;SDS011;68119;43.398;3.676;2023-05-10T00:02:44;3.47;;;1.42;;
78774;SDS011;68119;43.398;3.676;2023-05-10T00:05:12;5.35;;;1.65;;
78774;SDS011;68119;43.398;3.676;2023-05-10T00:07:44;5.97;;;1.70;;
78774;SDS011;68119;43.398;3.676;2023-05-10T00:10:12;9.18;;;1.55;;
78774;SDS011;68119;43.398;3.676;2023-05-10T00:12:38;5.55;;;1.90;;
78774;SDS011;68119;43.398;3.676;2023-05-10T00:15:08;4.40;;;1.73;;
78774;SDS011;68119;43.398;3.676;2023-05-10T00:17:39;4.25;;;1.70;;
78774;SDS011;68119;43.398;3.676;2023-05-10T00:20:09;3.35;;;1.60;;
78774;SDS011;68119;43.398;3.676;2023-05-10T00:22:35;5.05;;;1.77;;
78774;SDS011;68119;43.398;3.676;2023-05-10T00:25:01;4.57;;;1.80;;
78774;SDS011;68119;43.398;3.676;2023-05-10T00:27:30;5.28;;;1.63;;
78774;SDS011;68119;43.398;3.676;2023-05-10T00:29:56;6.10;;;1.90;;
78774;SDS011;68119;43.398;3.676;2023-05-10T00:32:25;7.70;;;1.58;;
78774;SDS011;68119;43.398;3.676;2023-05-10T00:34:53;7.53;;;1.80;;
78774;SDS011;68119;43.398;3.676;2023-05-10T00:37:22;3.95;;;1.92;;
78774;SDS011;68119;43.398;3.676;2023-05-10T00:39:48;6.03;;;1.73;;
78774;SDS011;68119;43.398;3.676;2023-05-10T00:42:15;6.07;;;1.83;;
78774;SDS011;68119;43.398;3.676;2023-05-10T00:44:41;3.72;;;1.77;;
78774;SDS011;68119;43.398;3.676;2023-05-10T00:47:12;6.35;;;1.80;;
78774;SDS011;68119;43.398;3.676;2023-05-10T00:49:44;4.45;;;1.85;;
78774;SDS011;68119;43.398;3.676;2023-05-10T00:52:16;5.75;;;1.83;;
78774;SDS011;68119;43.398;3.676;2023-05-10T00:54:45;6.10;;;2.00;;
78774;SDS011;68119;43.398;3.676;2023-05-10T00:57:15;5.20;;;1.92;;
78774;SDS011;68119;43.398;3.676;2023-05-10T00:59:43;5.25;;;1.77;;
78774;SDS011;68119;43.398;3.676;2023-05-10T01:02:09;5.18;;;1.98;;
78774;SDS011;68119;43.398;3.676;2023-05-10T01:04:36;3.83;;;1.45;;
78774;SDS011;68119;43.398;3.676;2023-05-10T01:07:09;5.97;;;2.17;;
78774;SDS011;68119;43.398;3.676;2023-05-10T01:09:38;5.82;;;2.13;;
78774;SDS011;68119;43.398;3.676;2023-05-10T01:12:07;5.28;;;1.95;;
78774;SDS011;68119;43.398;3.676;2023-05-10T01:14:33;5.82;;;1.83;;
78774;SDS011;68119;43.398;3.676;2023-05-10T01:17:05;6.68;;;1.85;;
78774;SDS011;68119;43.398;3.676;2023-05-10T01:19:37;5.93;;;1.95;;
78774;SDS011;68119;43.398;3.676;2023-05-10T01:35:09;2.88;;;1.48;;
78774;SDS011;68119;43.398;3.676;2023-05-10T01:37:45;3.95;;;1.83;;
78774;SDS011;68119;43.398;3.676;2023-05-10T01:43:01;6.07;;;2.10;;
78774;SDS011;68119;43.398;3.676;2023-05-10T01:45:37;6.65;;;2.28;;
78774;SDS011;68119;43.398;3.676;2023-05-10T01:48:05;6.30;;;2.10;;
78774;SDS011;68119;43.398;3.676;2023-05-10T01:50:37;6.68;;;1.92;;
78774;SDS011;68119;43.398;3.676;2023-05-10T01:53:04;6.95;;;2.22;;
78774;SDS011;68119;43.398;3.676;2023-05-10T01:55:32;6.60;;;2.40;;
78774;SDS011;68119;43.398;3.676;2023-05-10T01:58:09;5.22;;;2.13;;
78774;SDS011;68119;43.398;3.676;2023-05-10T02:00:45;5.30;;;1.90;;
78774;SDS011;68119;43.398;3.676;2023-05-10T02:03:12;8.48;;;2.42;;
78774;SDS011;68119;43.398;3.676;2023-05-10T02:05:38;5.68;;;1.77;;
78774;SDS011;68119;43.398;3.676;2023-05-10T02:08:08;9.07;;;2.25;;
78774;SDS011;68119;43.398;3.676;2023-05-10T02:10:37;5.85;;;2.33;;
78774;SDS011;68119;43.398;3.676;2023-05-10T02:13:08;7.85;;;2.33;;
78774;SDS011;68119;43.398;3.676;2023-05-10T02:15:38;7.18;;;2.20;;
78774;SDS011;68119;43.398;3.676;2023-05-10T02:18:11;6.68;;;2.70;;
78774;SDS011;68119;43.398;3.676;2023-05-10T02:20:40;9.18;;;2.42;;
78774;SDS011;68119;43.398;3.676;2023-05-10T02:23:07;10.40;;;2.90;;
78774;SDS011;68119;43.398;3.676;2023-05-10T02:25:35;11.52;;;2.47;;
78774;SDS011;68119;43.398;3.676;2023-05-10T02:28:08;11.20;;;3.00;;
78774;SDS011;68119;43.398;3.676;2023-05-10T02:30:37;13.18;;;3.85;;
78774;SDS011;68119;43.398;3.676;2023-05-10T02:33:06;12.65;;;3.33;;
78774;SDS011;68119;43.398;3.676;2023-05-10T02:35:32;9.65;;;2.88;;
78774;SDS011;68119;43.398;3.676;2023-05-10T02:38:02;12.88;;;3.45;;
78774;SDS011;68119;43.398;3.676;2023-05-10T02:40:31;10.88;;;2.88;;
78774;SDS011;68119;43.398;3.676;2023-05-10T02:42:58;10.45;;;3.08;;
78774;SDS011;68119;43.398;3.676;2023-05-10T02:45:30;18.15;;;3.83;;
78774;SDS011;68119;43.398;3.676;2023-05-10T02:47:59;15.27;;;3.40;;
78774;SDS011;68119;43.398;3.676;2023-05-10T02:50:29;13.75;;;3.20;;
78774;SDS011;68119;43.398;3.676;2023-05-10T02:53:02;11.23;;;3.08;;
78774;SDS011;68119;43.398;3.676;2023-05-10T02:57:58;11.95;;;3.25;;
78774;SDS011;68119;43.398;3.676;2023-05-10T03:00:28;12.38;;;3.42;;
78774;SDS011;68119;43.398;3.676;2023-05-10T03:02:57;15.25;;;3.70;;
78774;SDS011;68119;43.398;3.676;2023-05-10T03:05:26;15.93;;;3.70;;
78774;SDS011;68119;43.398;3.676;2023-05-10T03:07:58;10.02;;;3.42;;
78774;SDS011;68119;43.398;3.676;2023-05-10T03:10:29;14.60;;;3.63;;
78774;SDS011;68119;43.398;3.676;2023-05-10T03:13:07;15.82;;;3.58;;
78774;SDS011;68119;43.398;3.676;2023-05-10T03:18:12;12.50;;;3.25;;
78774;SDS011;68119;43.398;3.676;2023-05-10T03:20:42;11.93;;;3.60;;
78774;SDS011;68119;43.398;3.676;2023-05-10T03:23:22;16.42;;;4.18;;
78774;SDS011;68119;43.398;3.676;2023-05-10T03:28:20;14.18;;;3.35;;
78774;SDS011;68119;43.398;3.676;2023-05-10T03:30:53;11.60;;;3.08;;
78774;SDS011;68119;43.398;3.676;2023-05-10T03:33:20;14.20;;;3.15;;
78774;SDS011;68119;43.398;3.676;2023-05-10T03:35:46;11.88;;;3.42;;
78774;SDS011;68119;43.398;3.676;2023-05-10T03:38:17;14.63;;;3.25;;
78774;SDS011;68119;43.398;3.676;2023-05-10T03:40:46;11.98;;;3.13;;
78774;SDS011;68119;43.398;3.676;2023-05-10T03:43:18;13.27;;;3.78;;
78774;SDS011;68119;43.398;3.676;2023-05-10T03:45:44;14.07;;;3.80;;
78774;SDS011;68119;43.398;3.676;2023-05-10T03:48:13;12.57;;;3.33;;
78774;SDS011;68119;43.398;3.676;2023-05-10T03:50:42;10.77;;;3.30;;
78774;SDS011;68119;43.398;3.676;2023-05-10T03:53:13;13.27;;;3.33;;
78774;SDS011;68119;43.398;3.676;2023-05-10T03:55:41;11.32;;;3.45;;
78774;SDS011;68119;43.398;3.676;2023-05-10T03:58:12;11.98;;;3.53;;
78774;SDS011;68119;43.398;3.676;2023-05-10T04:00:46;10.65;;;3.15;;
78774;SDS011;68119;43.398;3.676;2023-05-10T04:03:13;10.90;;;3.17;;
78774;SDS011;68119;43.398;3.676;2023-05-10T04:05:44;13.90;;;3.60;;
78774;SDS011;68119;43.398;3.676;2023-05-10T04:08:10;16.98;;;4.07;;
78774;SDS011;68119;43.398;3.676;2023-05-10T04:10:36;14.50;;;3.45;;
78774;SDS011;68119;43.398;3.676;2023-05-10T04:13:02;9.43;;;2.97;;
78774;SDS011;68119;43.398;3.676;2023-05-10T04:15:31;10.45;;;3.20;;
78774;SDS011;68119;43.398;3.676;2023-05-10T04:17:59;14.63;;;3.63;;
78774;SDS011;68119;43.398;3.676;2023-05-10T04:20:29;11.55;;;3.20;;
78774;SDS011;68119;43.398;3.676;2023-05-10T04:22:57;15.98;;;3.58;;
78774;SDS011;68119;43.398;3.676;2023-05-10T04:25:28;12.25;;;3.22;;
78774;SDS011;68119;43.398;3.676;2023-05-10T04:27:57;12.10;;;3.63;;
78774;SDS011;68119;43.398;3.676;2023-05-10T04:30:25;14.05;;;3.30;;
78774;SDS011;68119;43.398;3.676;2023-05-10T04:32:56;12.63;;;3.08;;
78774;SDS011;68119;43.398;3.676;2023-05-10T04:35:26;12.93;;;3.42;;
78774;SDS011;68119;43.398;3.676;2023-05-10T04:40:25;10.85;;;3.25;;
78774;SDS011;68119;43.398;3.676;2023-05-10T04:45:20;11.95;;;3.20;;
78774;SDS011;68119;43.398;3.676;2023-05-10T04:47:49;13.48;;;3.45;;
78774;SDS011;68119;43.398;3.676;2023-05-10T04:50:21;14.68;;;3.83;;
78774;SDS011;68119;43.398;3.676;2023-05-10T04:52:49;13.00;;;3.38;;
78774;SDS011;68119;43.398;3.676;2023-05-10T04:55:21;11.43;;;3.78;;
78774;SDS011;68119;43.398;3.676;2023-05-10T04:57:50;13.50;;;3.42;;
78774;SDS011;68119;43.398;3.676;2023-05-10T05:00:19;12.57;;;3.20;;
78774;SDS011;68119;43.398;3.676;2023-05-10T05:02:45;15.13;;;3.78;;
78774;SDS011;68119;43.398;3.676;2023-05-10T05:05:14;13.68;;;3.42;;
78774;SDS011;68119;43.398;3.676;2023-05-10T05:07:43;13.90;;;3.60;;
78774;SDS011;68119;43.398;3.676;2023-05-10T05:10:12;13.52;;;3.30;;
78774;SDS011;68119;43.398;3.676;2023-05-10T05:12:41;11.50;;;3.35;;
78774;SDS011;68119;43.398;3.676;2023-05-10T05:17:38;10.00;;;3.38;;
78774;SDS011;68119;43.398;3.676;2023-05-10T05:20:08;10.20;;;3.15;;
78774;SDS011;68119;43.398;3.676;2023-05-10T05:22:40;13.73;;;3.40;;
78774;SDS011;68119;43.398;3.676;2023-05-10T05:25:09;10.65;;;2.95;;
78774;SDS011;68119;43.398;3.676;2023-05-10T05:27:40;9.30;;;3.00;;
78774;SDS011;68119;43.398;3.676;2023-05-10T05:30:12;9.73;;;2.53;;
78774;SDS011;68119;43.398;3.676;2023-05-10T05:35:14;10.45;;;2.92;;
78774;SDS011;68119;43.398;3.676;2023-05-10T05:37:43;11.82;;;3.25;;
78774;SDS011;68119;43.398;3.676;2023-05-10T05:40:15;8.60;;;2.67;;
78774;SDS011;68119;43.398;3.676;2023-05-10T05:42:46;8.55;;;2.92;;
78774;SDS011;68119;43.398;3.676;2023-05-10T05:45:16;7.38;;;2.45;;
78774;SDS011;68119;43.398;3.676;2023-05-10T05:47:45;22.58;;;3.53;;
78774;SDS011;68119;43.398;3.676;2023-05-10T05:50:13;10.88;;;2.25;;
78774;SDS011;68119;43.398;3.676;2023-05-10T05:52:39;8.73;;;2.38;;
78774;SDS011;68119;43.398;3.676;2023-05-10T05:55:06;9.25;;;2.60;;
78774;SDS011;68119;43.398;3.676;2023-05-10T05:57:38;8.48;;;2.58;;
78774;SDS011;68119;43.398;3.676;2023-05-10T06:00:07;9.27;;;2.80;;
78774;SDS011;68119;43.398;3.676;2023-05-10T06:02:33;6.40;;;2.15;;
78774;SDS011;68119;43.398;3.676;2023-05-10T06:05:02;9.25;;;2.78;;
78774;SDS011;68119;43.398;3.676;2023-05-10T06:07:31;7.70;;;2.40;;
78774;SDS011;68119;43.398;3.676;2023-05-10T06:10:00;9.88;;;2.70;;
78774;SDS011;68119;43.398;3.676;2023-05-10T06:12:26;10.95;;;3.17;;
78774;SDS011;68119;43.398;3.676;2023-05-10T06:14:52;12.93;;;2.95;;
78774;SDS011;68119;43.398;3.676;2023-05-10T06:17:18;11.25;;;2.75;;
78774;SDS011;68119;43.398;3.676;2023-05-10T06:19:53;13.88;;;2.65;;
78774;SDS011;68119;43.398;3.676;2023-05-10T06:22:21;13.85;;;3.20;;
78774;SDS011;68119;43.398;3.676;2023-05-10T06:24:48;12.50;;;2.90;;
78774;SDS011;68119;43.398;3.676;2023-05-10T06:27:20;9.05;;;2.08;;
78774;SDS011;68119;43.398;3.676;2023-05-10T06:29:49;7.75;;;2.45;;
78774;SDS011;68119;43.398;3.676;2023-05-10T06:32:21;10.25;;;2.45;;
78774;SDS011;68119;43.398;3.676;2023-05-10T06:34:47;8.98;;;2.50;;
78774;SDS011;68119;43.398;3.676;2023-05-10T06:39:48;11.65;;;2.65;;
78774;SDS011;68119;43.398;3.676;2023-05-10T06:42:17;8.80;;;2.40;;
78774;SDS011;68119;43.398;3.676;2023-05-10T06:44:46;10.00;;;2.63;;
78774;SDS011;68119;43.398;3.676;2023-05-10T06:47:17;9.10;;;2.60;;
78774;SDS011;68119;43.398;3.676;2023-05-10T06:49:43;8.20;;;2.65;;
78774;SDS011;68119;43.398;3.676;2023-05-10T06:52:14;9.30;;;2.53;;
78774;SDS011;68119;43.398;3.676;2023-05-10T06:54:41;13.25;;;3.17;;
78774;SDS011;68119;43.398;3.676;2023-05-10T06:57:10;10.00;;;2.63;;
78774;SDS011;68119;43.398;3.676;2023-05-10T06:59:36;10.60;;;2.70;;
78774;SDS011;68119;43.398;3.676;2023-05-10T07:02:07;5.63;;;2.30;;
78774;SDS011;68119;43.398;3.676;2023-05-10T07:04:39;8.18;;;2.85;;
78774;SDS011;68119;43.398;3.676;2023-05-10T07:09:40;8.75;;;2.55;;
78774;SDS011;68119;43.398;3.676;2023-05-10T07:12:09;8.18;;;2.65;;
78774;SDS011;68119;43.398;3.676;2023-05-10T07:14:37;9.13;;;2.47;;
78774;SDS011;68119;43.398;3.676;2023-05-10T07:17:06;8.13;;;2.60;;
78774;SDS011;68119;43.398;3.676;2023-05-10T07:19:32;11.02;;;2.53;;
78774;SDS011;68119;43.398;3.676;2023-05-10T07:22:01;14.20;;;3.10;;
78774;SDS011;68119;43.398;3.676;2023-05-10T07:24:31;12.80;;;3.45;;
78774;SDS011;68119;43.398;3.676;2023-05-10T07:26:58;12.20;;;2.88;;
78774;SDS011;68119;43.398;3.676;2023-05-10T07:29:24;8.23;;;2.70;;
78774;SDS011;68119;43.398;3.676;2023-05-10T07:31:53;9.02;;;2.75;;
78774;SDS011;68119;43.398;3.676;2023-05-10T07:34:20;10.73;;;3.10;;
78774;SDS011;68119;43.398;3.676;2023-05-10T07:36:46;12.85;;;3.10;;
78774;SDS011;68119;43.398;3.676;2023-05-10T07:39:17;10.07;;;2.95;;
78774;SDS011;68119;43.398;3.676;2023-05-10T07:41:45;12.35;;;2.90;;
78774;SDS011;68119;43.398;3.676;2023-05-10T07:44:14;10.95;;;2.55;;
78774;SDS011;68119;43.398;3.676;2023-05-10T07:46:45;8.70;;;2.97;;
78774;SDS011;68119;43.398;3.676;2023-05-10T07:49:11;10.40;;;2.83;;
78774;SDS011;68119;43.398;3.676;2023-05-10T07:51:37;10.57;;;2.90;;
78774;SDS011;68119;43.398;3.676;2023-05-10T07:54:09;7.50;;;2.15;;
78774;SDS011;68119;43.398;3.676;2023-05-10T07:56:36;12.63;;;3.00;;
78774;SDS011;68119;43.398;3.676;2023-05-10T07:59:02;11.25;;;2.85;;
78774;SDS011;68119;43.398;3.676;2023-05-10T08:01:32;10.82;;;2.90;;
78774;SDS011;68119;43.398;3.676;2023-05-10T08:03:59;7.78;;;2.45;;
78774;SDS011;68119;43.398;3.676;2023-05-10T08:06:25;10.40;;;3.13;;
78774;SDS011;68119;43.398;3.676;2023-05-10T08:08:55;12.40;;;2.85;;
78774;SDS011;68119;43.398;3.676;2023-05-10T08:11:24;11.00;;;3.10;;
78774;SDS011;68119;43.398;3.676;2023-05-10T08:13:50;8.60;;;2.80;;
78774;SDS011;68119;43.398;3.676;2023-05-10T08:16:19;10.27;;;2.90;;
78774;SDS011;68119;43.398;3.676;2023-05-10T08:18:46;7.07;;;2.53;;
78774;SDS011;68119;43.398;3.676;2023-05-10T08:21:18;8.05;;;3.00;;
78774;SDS011;68119;43.398;3.676;2023-05-10T08:26:13;8.45;;;2.70;;
78774;SDS011;68119;43.398;3.676;2023-05-10T08:28:40;13.15;;;2.88;;
78774;SDS011;68119;43.398;3.676;2023-05-10T08:31:09;9.45;;;2.70;;
78774;SDS011;68119;43.398;3.676;2023-05-10T08:33:38;8.80;;;2.88;;
78774;SDS011;68119;43.398;3.676;2023-05-10T08:36:04;11.02;;;2.80;;
78774;SDS011;68119;43.398;3.676;2023-05-10T08:38:30;7.57;;;2.58;;
78774;SDS011;68119;43.398;3.676;2023-05-10T08:41:02;8.77;;;2.60;;
78774;SDS011;68119;43.398;3.676;2023-05-10T08:43:31;7.78;;;2.60;;
78774;SDS011;68119;43.398;3.676;2023-05-10T08:46:01;5.80;;;2.15;;
78774;SDS011;68119;43.398;3.676;2023-05-10T08:48:30;12.32;;;3.10;;
78774;SDS011;68119;43.398;3.676;2023-05-10T08:51:01;11.32;;;2.60;;
78774;SDS011;68119;43.398;3.676;2023-05-10T08:53:28;8.25;;;2.42;;
78774;SDS011;68119;43.398;3.676;2023-05-10T08:55:59;8.48;;;2.40;;
78774;SDS011;68119;43.398;3.676;2023-05-10T08:58:28;18.20;;;2.80;;
78774;SDS011;68119;43.398;3.676;2023-05-10T09:00:59;10.63;;;2.60;;
78774;SDS011;68119;43.398;3.676;2023-05-10T09:03:26;10.55;;;2.83;;
78774;SDS011;68119;43.398;3.676;2023-05-10T09:05:56;8.15;;;2.50;;
78774;SDS011;68119;43.398;3.676;2023-05-10T09:08:25;10.63;;;2.50;;
78774;SDS011;68119;43.398;3.676;2023-05-10T09:10:59;10.45;;;2.70;;
78774;SDS011;68119;43.398;3.676;2023-05-10T09:13:28;6.60;;;2.00;;
78774;SDS011;68119;43.398;3.676;2023-05-10T09:15:58;8.35;;;2.42;;
78774;SDS011;68119;43.398;3.676;2023-05-10T09:18:27;11.27;;;2.72;;
78774;SDS011;68119;43.398;3.676;2023-05-10T09:20:54;10.38;;;2.70;;
78774;SDS011;68119;43.398;3.676;2023-05-10T09:23:25;9.40;;;2.47;;
78774;SDS011;68119;43.398;3.676;2023-05-10T09:26:04;11.45;;;2.78;;
78774;SDS011;68119;43.398;3.676;2023-05-10T09:28:33;8.15;;;2.42;;
78774;SDS011;68119;43.398;3.676;2023-05-10T09:31:02;12.20;;;2.50;;
78774;SDS011;68119;43.398;3.676;2023-05-10T09:33:32;4.90;;;2.35;;
78774;SDS011;68119;43.398;3.676;2023-05-10T09:36:09;11.00;;;2.40;;
78774;SDS011;68119;43.398;3.676;2023-05-10T09:38:50;11.30;;;2.30;;
78774;SDS011;68119;43.398;3.676;2023-05-10T09:41:21;9.02;;;2.60;;
78774;SDS011;68119;43.398;3.676;2023-05-10T09:43:51;7.60;;;2.28;;
78774;SDS011;68119;43.398;3.676;2023-05-10T09:46:26;12.77;;;2.63;;
78774;SDS011;68119;43.398;3.676;2023-05-10T09:48:57;8.82;;;2.60;;
78774;SDS011;68119;43.398;3.676;2023-05-10T09:51:27;7.20;;;2.22;;
78774;SDS011;68119;43.398;3.676;2023-05-10T09:54:13;10.05;;;2.47;;
78774;SDS011;68119;43.398;3.676;2023-05-10T09:56:42;9.60;;;2.47;;
78774;SDS011;68119;43.398;3.676;2023-05-10T09:59:11;7.30;;;2.40;;
78774;SDS011;68119;43.398;3.676;2023-05-10T10:01:41;10.38;;;2.25;;
78774;SDS011;68119;43.398;3.676;2023-05-10T10:04:13;4.43;;;1.90;;
78774;SDS011;68119;43.398;3.676;2023-05-10T10:06:41;8.82;;;2.50;;
78774;SDS011;68119;43.398;3.676;2023-05-10T10:09:10;8.00;;;2.50;;
78774;SDS011;68119;43.398;3.676;2023-05-10T10:11:39;6.40;;;2.47;;
78774;SDS011;68119;43.398;3.676;2023-05-10T10:14:09;9.45;;;2.30;;
78774;SDS011;68119;43.398;3.676;2023-05-10T10:16:39;5.70;;;1.88;;
78774;SDS011;68119;43.398;3.676;2023-05-10T10:19:10;8.73;;;2.30;;
78774;SDS011;68119;43.398;3.676;2023-05-10T10:21:40;10.93;;;2.33;;
78774;SDS011;68119;43.398;3.676;2023-05-10T10:24:11;9.48;;;2.40;;
78774;SDS011;68119;43.398;3.676;2023-05-10T10:26:40;10.50;;;2.70;;
78774;SDS011;68119;43.398;3.676;2023-05-10T10:31:49;7.80;;;2.50;;
78774;SDS011;68119;43.398;3.676;2023-05-10T10:34:26;7.80;;;2.38;;
78774;SDS011;68119;43.398;3.676;2023-05-10T10:37:03;5.43;;;2.00;;
78774;SDS011;68119;43.398;3.676;2023-05-10T10:39:35;9.02;;;2.70;;
78774;SDS011;68119;43.398;3.676;2023-05-10T10:42:02;5.18;;;2.08;;
78774;SDS011;68119;43.398;3.676;2023-05-10T10:44:37;6.38;;;1.90;;
78774;SDS011;68119;43.398;3.676;2023-05-10T10:50:08;9.60;;;2.70;;
78774;SDS011;68119;43.398;3.676;2023-05-10T10:52:52;6.10;;;2.15;;
78774;SDS011;68119;43.398;3.676;2023-05-10T10:55:19;6.85;;;2.22;;
78774;SDS011;68119;43.398;3.676;2023-05-10T10:57:57;8.23;;;2.47;;
78774;SDS011;68119;43.398;3.676;2023-05-10T11:02:57;10.63;;;2.40;;
78774;SDS011;68119;43.398;3.676;2023-05-10T11:07:56;7.97;;;2.33;;
78774;SDS011;68119;43.398;3.676;2023-05-10T11:10:28;4.32;;;2.10;;
78774;SDS011;68119;43.398;3.676;2023-05-10T11:13:04;5.97;;;1.75;;
78774;SDS011;68119;43.398;3.676;2023-05-10T11:18:00;4.85;;;1.73;;
78774;SDS011;68119;43.398;3.676;2023-05-10T11:21:06;5.65;;;2.15;;
78774;SDS011;68119;43.398;3.676;2023-05-10T11:26:18;6.75;;;2.28;;
78774;SDS011;68119;43.398;3.676;2023-05-10T11:28:50;9.75;;;2.10;;
78774;SDS011;68119;43.398;3.676;2023-05-10T11:31:19;4.75;;;1.83;;
78774;SDS011;68119;43.398;3.676;2023-05-10T11:33:52;6.82;;;2.17;;
78774;SDS011;68119;43.398;3.676;2023-05-10T11:36:21;5.18;;;2.17;;
78774;SDS011;68119;43.398;3.676;2023-05-10T11:38:50;5.78;;;2.45;;
78774;SDS011;68119;43.398;3.676;2023-05-10T11:41:19;6.95;;;2.30;;
78774;SDS011;68119;43.398;3.676;2023-05-10T11:43:52;5.70;;;2.33;;
78774;SDS011;68119;43.398;3.676;2023-05-10T11:46:22;5.87;;;1.90;;
78774;SDS011;68119;43.398;3.676;2023-05-10T11:48:54;6.07;;;2.05;;
78774;SDS011;68119;43.398;3.676;2023-05-10T11:51:25;5.63;;;2.15;;
78774;SDS011;68119;43.398;3.676;2023-05-10T11:53:56;5.78;;;1.98;;
78774;SDS011;68119;43.398;3.676;2023-05-10T11:56:25;5.30;;;2.10;;
78774;SDS011;68119;43.398;3.676;2023-05-10T11:58:57;5.93;;;2.38;;
78774;SDS011;68119;43.398;3.676;2023-05-10T12:01:26;6.35;;;2.25;;
78774;SDS011;68119;43.398;3.676;2023-05-10T12:03:57;5.60;;;2.28;;
78774;SDS011;68119;43.398;3.676;2023-05-10T12:06:29;6.20;;;2.25;;
78774;SDS011;68119;43.398;3.676;2023-05-10T12:09:01;5.28;;;2.17;;
78774;SDS011;68119;43.398;3.676;2023-05-10T12:11:36;7.88;;;2.45;;
78774;SDS011;68119;43.398;3.676;2023-05-10T12:16:37;4.07;;;1.70;;
78774;SDS011;68119;43.398;3.676;2023-05-10T12:19:03;4.18;;;2.08;;
78774;SDS011;68119;43.398;3.676;2023-05-10T12:21:30;6.18;;;2.17;;
78774;SDS011;68119;43.398;3.676;2023-05-10T12:24:00;13.60;;;2.60;;
78774;SDS011;68119;43.398;3.676;2023-05-10T12:26:36;5.05;;;1.80;;
78774;SDS011;68119;43.398;3.676;2023-05-10T12:29:17;4.20;;;1.90;;
78774;SDS011;68119;43.398;3.676;2023-05-10T12:31:57;4.53;;;1.70;;
78774;SDS011;68119;43.398;3.676;2023-05-10T12:34:35;4.50;;;1.75;;
78774;SDS011;68119;43.398;3.676;2023-05-10T12:37:06;5.55;;;1.80;;
78774;SDS011;68119;43.398;3.676;2023-05-10T12:39:38;10.73;;;2.20;;
78774;SDS011;68119;43.398;3.676;2023-05-10T12:42:05;3.30;;;1.85;;
78774;SDS011;68119;43.398;3.676;2023-05-10T12:44:31;9.68;;;2.10;;
78774;SDS011;68119;43.398;3.676;2023-05-10T12:46:57;6.90;;;2.00;;
78774;SDS011;68119;43.398;3.676;2023-05-10T12:49:23;11.25;;;2.35;;
78774;SDS011;68119;43.398;3.676;2023-05-10T12:51:52;7.70;;;2.10;;
78774;SDS011;68119;43.398;3.676;2023-05-10T12:54:21;5.95;;;1.90;;
78774;SDS011;68119;43.398;3.676;2023-05-10T12:56:50;7.55;;;2.50;;
78774;SDS011;68119;43.398;3.676;2023-05-10T12:59:19;4.15;;;2.00;;
78774;SDS011;68119;43.398;3.676;2023-05-10T13:01:47;5.47;;;2.10;;
78774;SDS011;68119;43.398;3.676;2023-05-10T13:04:13;4.25;;;1.77;;
78774;SDS011;68119;43.398;3.676;2023-05-10T13:06:45;7.10;;;1.98;;
78774;SDS011;68119;43.398;3.676;2023-05-10T13:09:14;5.80;;;2.20;;
78774;SDS011;68119;43.398;3.676;2023-05-10T13:11:40;6.93;;;1.90;;
78774;SDS011;68119;43.398;3.676;2023-05-10T13:14:12;11.25;;;2.17;;
78774;SDS011;68119;43.398;3.676;2023-05-10T13:16:42;4.30;;;1.50;;
78774;SDS011;68119;43.398;3.676;2023-05-10T13:19:10;3.00;;;1.42;;
78774;SDS011;68119;43.398;3.676;2023-05-10T13:21:39;4.90;;;1.73;;
78774;SDS011;68119;43.398;3.676;2023-05-10T13:24:09;6.00;;;1.85;;
78774;SDS011;68119;43.398;3.676;2023-05-10T13:26:39;5.50;;;1.83;;
78774;SDS011;68119;43.398;3.676;2023-05-10T13:29:08;6.03;;;1.90;;
78774;SDS011;68119;43.398;3.676;2023-05-10T13:31:34;5.40;;;2.08;;
78774;SDS011;68119;43.398;3.676;2023-05-10T13:34:01;6.47;;;1.95;;
78774;SDS011;68119;43.398;3.676;2023-05-10T13:36:30;6.37;;;2.30;;
78774;SDS011;68119;43.398;3.676;2023-05-10T13:38:59;10.82;;;2.20;;
78774;SDS011;68119;43.398;3.676;2023-05-10T13:41:27;4.35;;;1.90;;
78774;SDS011;68119;43.398;3.676;2023-05-10T13:43:53;5.75;;;1.92;;
78774;SDS011;68119;43.398;3.676;2023-05-10T13:46:20;7.22;;;2.05;;
78774;SDS011;68119;43.398;3.676;2023-05-10T13:48:51;5.10;;;1.80;;
78774;SDS011;68119;43.398;3.676;2023-05-10T13:51:20;7.68;;;1.85;;
78774;SDS011;68119;43.398;3.676;2023-05-10T13:53:49;4.73;;;1.90;;
78774;SDS011;68119;43.398;3.676;2023-05-10T13:56:17;5.40;;;1.90;;
78774;SDS011;68119;43.398;3.676;2023-05-10T13:58:49;5.10;;;1.67;;
78774;SDS011;68119;43.398;3.676;2023-05-10T14:01:18;6.00;;;1.75;;
78774;SDS011;68119;43.398;3.676;2023-05-10T14:03:44;3.67;;;1.90;;
78774;SDS011;68119;43.398;3.676;2023-05-10T14:06:10;4.88;;;2.15;;
78774;SDS011;68119;43.398;3.676;2023-05-10T14:08:36;7.38;;;2.30;;
78774;SDS011;68119;43.398;3.676;2023-05-10T14:11:06;5.93;;;2.00;;
78774;SDS011;68119;43.398;3.676;2023-05-10T14:13:32;7.60;;;2.03;;
78774;SDS011;68119;43.398;3.676;2023-05-10T14:15:58;4.70;;;2.45;;
78774;SDS011;68119;43.398;3.676;2023-05-10T14:18:33;7.28;;;2.38;;
78774;SDS011;68119;43.398;3.676;2023-05-10T14:20:59;6.35;;;2.03;;
78774;SDS011;68119;43.398;3.676;2023-05-10T14:23:25;6.18;;;1.80;;
78774;SDS011;68119;43.398;3.676;2023-05-10T14:25:53;5.22;;;1.85;;
78774;SDS011;68119;43.398;3.676;2023-05-10T14:28:20;3.90;;;1.50;;
78774;SDS011;68119;43.398;3.676;2023-05-10T14:30:50;4.40;;;1.45;;
78774;SDS011;68119;43.398;3.676;2023-05-10T14:33:16;4.57;;;1.90;;
78774;SDS011;68119;43.398;3.676;2023-05-10T14:35:45;9.00;;;2.20;;
78774;SDS011;68119;43.398;3.676;2023-05-10T14:38:14;5.55;;;2.00;;
78774;SDS011;68119;43.398;3.676;2023-05-10T14:40:41;6.72;;;2.05;;
78774;SDS011;68119;43.398;3.676;2023-05-10T14:43:08;6.55;;;2.00;;
78774;SDS011;68119;43.398;3.676;2023-05-10T14:45:34;8.00;;;2.08;;
78774;SDS011;68119;43.398;3.676;2023-05-10T14:48:03;8.90;;;2.08;;
78774;SDS011;68119;43.398;3.676;2023-05-10T14:50:36;36.50;;;2.53;;
78774;SDS011;68119;43.398;3.676;2023-05-10T14:53:02;6.07;;;2.20;;
78774;SDS011;68119;43.398;3.676;2023-05-10T14:55:28;6.47;;;1.88;;
78774;SDS011;68119;43.398;3.676;2023-05-10T14:57:58;7.60;;;2.17;;
78774;SDS011;68119;43.398;3.676;2023-05-10T15:00:27;7.57;;;2.25;;
78774;SDS011;68119;43.398;3.676;2023-05-10T15:02:56;10.38;;;2.50;;
78774;SDS011;68119;43.398;3.676;2023-05-10T15:05:28;10.00;;;2.17;;
78774;SDS011;68119;43.398;3.676;2023-05-10T15:07:59;6.70;;;1.90;;
78774;SDS011;68119;43.398;3.676;2023-05-10T15:10:48;7.13;;;2.10;;
78774;SDS011;68119;43.398;3.676;2023-05-10T15:13:16;8.23;;;2.40;;
78774;SDS011;68119;43.398;3.676;2023-05-10T15:15:48;6.97;;;2.10;;
78774;SDS011;68119;43.398;3.676;2023-05-10T15:18:17;6.67;;;1.90;;
78774;SDS011;68119;43.398;3.676;2023-05-10T15:20:46;6.00;;;1.98;;
78774;SDS011;68119;43.398;3.676;2023-05-10T15:23:17;6.72;;;2.17;;
78774;SDS011;68119;43.398;3.676;2023-05-10T15:25:46;6.95;;;1.85;;
78774;SDS011;68119;43.398;3.676;2023-05-10T15:28:14;5.70;;;1.80;;
78774;SDS011;68119;43.398;3.676;2023-05-10T15:30:42;3.78;;;1.70;;
78774;SDS011;68119;43.398;3.676;2023-05-10T15:33:16;4.70;;;1.83;;
78774;SDS011;68119;43.398;3.676;2023-05-10T15:35:45;7.25;;;2.00;;
78774;SDS011;68119;43.398;3.676;2023-05-10T15:38:14;5.88;;;2.10;;
78774;SDS011;68119;43.398;3.676;2023-05-10T15:40:43;8.10;;;1.98;;
78774;SDS011;68119;43.398;3.676;2023-05-10T15:43:12;8.48;;;1.90;;
78774;SDS011;68119;43.398;3.676;2023-05-10T15:45:43;8.18;;;2.45;;
78774;SDS011;68119;43.398;3.676;2023-05-10T15:48:09;9.60;;;2.25;;
78774;SDS011;68119;43.398;3.676;2023-05-10T15:50:40;5.32;;;1.88;;
78774;SDS011;68119;43.398;3.676;2023-05-10T15:53:09;5.40;;;1.85;;
78774;SDS011;68119;43.398;3.676;2023-05-10T15:55:37;5.78;;;1.98;;